Time;durP1;ratioP1;P1;durP2;ratioP2;P2;SDS_P1;SDS_P2;PMS_P1;PMS_P2;Temp;Humidity;BMP_temperature;BMP_pressure;BME280_temperature;BME280_humidity;BME280_pressure;Samples;Min_cycle;Max_cycle;Signal;HPM_P1;HPM_P2
2023/07/13 00:01:49;;;;;;;8.82;3.20;;;22.30;99.90;;;;;;5121397;27;20029;-80
2023/07/13 00:04:16;;;;;;;3.03;2.22;;;22.10;99.90;;;;;;5120798;28;20084;-79
2023/07/13 00:06:44;;;;;;;3.25;2.20;;;21.90;99.90;;;;;;5120207;27;20046;-79
2023/07/13 00:09:15;;;;;;;4.45;2.00;;;21.80;99.90;;;;;;5121766;27;20035;-79
2023/07/13 00:11:41;;;;;;;2.58;1.75;;;21.70;99.90;;;;;;5120101;28;20055;-80
2023/07/13 00:14:07;;;;;;;3.38;1.77;;;21.70;99.90;;;;;;5122082;28;20027;-81
2023/07/13 00:16:38;;;;;;;3.53;1.52;;;21.70;99.90;;;;;;5119941;28;20020;-80
2023/07/13 00:19:04;;;;;;;6.65;1.88;;;21.70;99.90;;;;;;5120618;28;20043;-81
2023/07/13 00:21:30;;;;;;;5.40;1.70;;;21.50;99.90;;;;;;5120101;28;20453;-82
2023/07/13 00:23:56;;;;;;;2.22;1.80;;;21.30;99.90;;;;;;5121399;28;20055;-81
2023/07/13 00:26:21;;;;;;;2.58;1.50;;;21.20;99.90;;;;;;5122800;28;20531;-81
2023/07/13 00:28:47;;;;;;;3.20;1.70;;;21.10;99.90;;;;;;5119175;28;20020;-81
2023/07/13 00:31:14;;;;;;;8.43;1.60;;;21.20;99.90;;;;;;5125193;28;20062;-81
2023/07/13 00:33:41;;;;;;;5.53;1.55;;;21.20;99.90;;;;;;5118535;28;20024;-81
2023/07/13 00:36:09;;;;;;;2.33;1.77;;;21.40;99.90;;;;;;5122830;27;20408;-81
2023/07/13 00:38:35;;;;;;;2.90;1.67;;;21.50;99.90;;;;;;5119671;28;20411;-81
2023/07/13 00:41:03;;;;;;;7.20;2.67;;;21.60;99.90;;;;;;5120920;28;20012;-82
2023/07/13 00:43:29;;;;;;;2.85;1.95;;;21.80;99.90;;;;;;5137862;27;20058;-82
2023/07/13 00:46:01;;;;;;;9.48;1.70;;;21.70;99.90;;;;;;5119856;28;20111;-82
2023/07/13 00:48:32;;;;;;;;;;;21.70;99.90;;;;;;5119769;28;20024;-82
2023/07/13 00:50:59;;;;;;;4.53;2.20;;;21.70;99.90;;;;;;5118500;28;19958;-81
2023/07/13 00:53:27;;;;;;;4.95;1.70;;;21.80;99.90;;;;;;5120994;28;20023;-81
2023/07/13 00:55:55;;;;;;;2.28;1.60;;;21.80;99.90;;;;;;5120191;28;20485;-82
2023/07/13 00:58:22;;;;;;;2.08;1.80;;;21.80;99.90;;;;;;5122534;28;20034;-82
2023/07/13 01:00:49;;;;;;;6.30;1.63;;;21.80;99.90;;;;;;5120821;27;20478;-83
2023/07/13 01:03:15;;;;;;;2.95;1.60;;;21.80;99.90;;;;;;5125402;27;20054;-82
2023/07/13 01:05:41;;;;;;;5.57;1.63;;;21.80;99.90;;;;;;5127178;27;20058;-82
2023/07/13 01:08:08;;;;;;;7.03;1.95;;;21.90;99.90;;;;;;5122491;27;20019;-82
2023/07/13 01:10:38;;;;;;;3.58;1.27;;;21.90;99.90;;;;;;5124989;27;20027;-82
2023/07/13 01:13:05;;;;;;;5.32;1.63;;;21.80;99.90;;;;;;5123801;27;20059;-82
2023/07/13 01:15:45;;;;;;;4.72;1.80;;;21.60;99.90;;;;;;5123755;27;20050;-82
2023/07/13 01:18:18;;;;;;;5.25;1.70;;;21.60;99.90;;;;;;5125791;27;20023;-82
2023/07/13 01:20:58;;;;;;;4.07;1.65;;;21.70;99.90;;;;;;5123532;27;20080;-83
2023/07/13 01:23:25;;;;;;;3.65;1.60;;;21.60;99.90;;;;;;5125713;27;20059;-82
2023/07/13 01:25:52;;;;;;;4.53;1.80;;;21.50;99.90;;;;;;5122422;27;20486;-82
2023/07/13 01:28:18;;;;;;;6.60;2.00;;;21.60;99.90;;;;;;5125769;27;20035;-83
2023/07/13 01:30:46;;;;;;;4.72;1.75;;;21.60;99.90;;;;;;5123205;27;20015;-83
2023/07/13 01:33:14;;;;;;;9.93;2.58;;;21.70;99.90;;;;;;5123656;27;20502;-83
2023/07/13 01:35:41;;;;;;;3.78;1.92;;;21.70;99.90;;;;;;5122524;27;20077;-83
2023/07/13 01:38:08;;;;;;;4.63;1.50;;;21.70;99.90;;;;;;5126127;27;20551;-83
2023/07/13 01:40:34;;;;;;;3.67;1.50;;;21.60;99.90;;;;;;5120455;27;20121;-83
2023/07/13 01:43:00;;;;;;;5.30;1.88;;;21.60;99.90;;;;;;5119343;27;20111;-89
2023/07/13 01:45:26;;;;;;;2.33;1.65;;;21.60;99.90;;;;;;5122101;27;20334;-89
2023/07/13 01:47:52;;;;;;;4.10;1.90;;;21.70;99.90;;;;;;5119783;27;20366;-89
2023/07/13 01:50:17;;;;;;;4.00;1.70;;;21.70;99.90;;;;;;5122753;27;20023;-89
2023/07/13 01:52:43;;;;;;;4.00;1.80;;;21.70;99.90;;;;;;5120940;27;20077;-89
2023/07/13 01:55:09;;;;;;;3.15;1.80;;;21.70;99.90;;;;;;5121019;27;20027;-89
2023/07/13 01:57:35;;;;;;;2.47;1.60;;;21.70;99.90;;;;;;5121901;27;20425;-89
2023/07/13 02:00:04;;;;;;;2.78;1.88;;;21.60;99.90;;;;;;5121094;27;20118;-89
2023/07/13 02:02:30;;;;;;;1.90;1.80;;;21.50;99.90;;;;;;5119419;27;20047;-88
2023/07/13 02:04:56;;;;;;;2.08;1.60;;;21.50;99.90;;;;;;5118374;27;20024;-88
2023/07/13 02:07:22;;;;;;;8.38;1.58;;;21.40;99.90;;;;;;5122089;27;20052;-89
2023/07/13 02:09:48;;;;;;;5.57;1.42;;;21.40;99.90;;;;;;5118682;27;20024;-88
2023/07/13 02:12:13;;;;;;;7.55;1.98;;;21.30;99.90;;;;;;5119091;27;20052;-89
2023/07/13 02:14:39;;;;;;;2.05;1.60;;;21.20;99.90;;;;;;5122692;27;20037;-88
2023/07/13 02:17:05;;;;;;;6.53;1.38;;;21.10;99.90;;;;;;5119574;27;20030;-89
2023/07/13 02:19:31;;;;;;;5.85;1.70;;;21.10;99.90;;;;;;5121534;27;20027;-90
2023/07/13 02:21:56;;;;;;;2.33;1.65;;;21.00;99.90;;;;;;5121650;27;20031;-90
2023/07/13 02:24:22;;;;;;;3.42;1.60;;;21.10;99.90;;;;;;5119387;27;20090;-91
2023/07/13 02:26:48;;;;;;;1.67;1.58;;;21.10;99.90;;;;;;5121194;27;20088;-91
2023/07/13 02:29:14;;;;;;;1.25;1.15;;;21.20;99.90;;;;;;5124331;27;20110;-89
2023/07/13 02:31:40;;;;;;;2.85;1.33;;;21.30;99.90;;;;;;5122126;27;20027;-88
2023/07/13 02:34:05;;;;;;;1.92;1.35;;;21.30;99.90;;;;;;5126097;27;20026;-89
2023/07/13 02:36:31;;;;;;;1.38;1.30;;;21.30;99.90;;;;;;5121297;27;20027;-87
2023/07/13 02:39:00;;;;;;;1.52;1.30;;;21.40;99.90;;;;;;5126313;27;20028;-88
2023/07/13 02:41:27;;;;;;;4.60;1.30;;;21.40;99.90;;;;;;5125212;27;20034;-89
2023/07/13 02:43:52;;;;;;;2.08;1.38;;;21.40;99.90;;;;;;5122490;27;20417;-90
2023/07/13 02:46:19;;;;;;;2.40;1.50;;;21.40;99.90;;;;;;5123265;27;20023;-88
2023/07/13 02:48:45;;;;;;;1.15;1.10;;;21.40;99.90;;;;;;5120574;27;20382;-90
2023/07/13 02:51:14;;;;;;;4.32;1.25;;;21.40;99.90;;;;;;5123224;27;20027;-89
2023/07/13 02:53:40;;;;;;;1.83;1.23;;;21.40;99.90;;;;;;5121454;27;20023;-88
2023/07/13 02:56:07;;;;;;;2.58;1.23;;;21.40;99.90;;;;;;5125606;27;20534;-89
2023/07/13 02:58:35;;;;;;;1.17;1.15;;;21.40;99.90;;;;;;5124666;27;20483;-89
2023/07/13 03:01:07;;;;;;;3.65;1.30;;;21.50;99.90;;;;;;5118643;27;20424;-88
2023/07/13 03:03:33;;;;;;;6.78;1.50;;;21.50;99.90;;;;;;5124720;27;20035;-87
2023/07/13 03:06:01;;;;;;;7.10;1.38;;;21.60;99.90;;;;;;5125806;27;20095;-88
2023/07/13 03:08:27;;;;;;;2.58;1.17;;;21.50;99.90;;;;;;5124515;27;20053;-88
2023/07/13 03:11:08;;;;;;;3.05;1.67;;;21.60;99.90;;;;;;5120330;27;20443;-88
2023/07/13 03:13:34;;;;;;;2.08;1.70;;;21.50;99.90;;;;;;5124357;27;20038;-87
2023/07/13 03:16:00;;;;;;;1.35;1.17;;;21.50;99.90;;;;;;5120279;27;20023;-87
2023/07/13 03:18:29;;;;;;;1.38;1.02;;;21.50;99.90;;;;;;5126859;27;20034;-88
2023/07/13 03:20:55;;;;;;;2.00;1.55;;;21.60;99.90;;;;;;5116918;27;20110;-90
2023/07/13 03:23:21;;;;;;;1.98;1.50;;;21.60;99.90;;;;;;5122971;27;20194;-88
2023/07/13 03:25:47;;;;;;;5.28;1.63;;;21.60;99.90;;;;;;5120070;27;20053;-87
2023/07/13 03:28:14;;;;;;;3.75;1.42;;;21.50;99.90;;;;;;5125579;27;20023;-88
2023/07/13 03:30:40;;;;;;;2.58;1.17;;;21.50;99.90;;;;;;5123439;27;20483;-88
2023/07/13 03:33:06;;;;;;;2.85;1.60;;;21.50;99.90;;;;;;5132414;27;20046;-88
2023/07/13 03:35:32;;;;;;;1.77;1.13;;;21.60;99.90;;;;;;5120495;27;20483;-89
2023/07/13 03:37:59;;;;;;;3.15;1.33;;;21.60;99.90;;;;;;5121576;27;20016;-89
2023/07/13 03:40:26;;;;;;;1.33;1.23;;;21.70;99.90;;;;;;5120355;27;20034;-89
2023/07/13 03:42:52;;;;;;;2.45;1.10;;;21.70;99.90;;;;;;5121164;27;20023;-89
2023/07/13 03:45:18;;;;;;;1.77;1.20;;;21.70;99.90;;;;;;5122102;27;20015;-88
2023/07/13 03:47:44;;;;;;;2.15;1.13;;;21.80;99.90;;;;;;5116521;27;20024;-89
2023/07/13 03:50:10;;;;;;;2.00;1.30;;;21.80;99.90;;;;;;5125079;27;20474;-88
2023/07/13 03:52:36;;;;;;;1.95;1.10;;;21.80;99.90;;;;;;5123400;27;20027;-89
2023/07/13 03:55:01;;;;;;;3.97;1.10;;;21.80;99.90;;;;;;5121145;27;20242;-89
2023/07/13 03:57:27;;;;;;;1.77;1.40;;;21.70;99.90;;;;;;5128373;27;20497;-90
2023/07/13 03:59:53;;;;;;;2.22;1.60;;;21.80;99.90;;;;;;5132749;27;20019;-88
2023/07/13 04:02:19;;;;;;;1.98;1.10;;;21.70;99.90;;;;;;5122710;27;20068;-89
2023/07/13 04:04:44;;;;;;;2.97;1.60;;;21.70;99.90;;;;;;5117929;27;20076;-90
2023/07/13 04:07:10;;;;;;;4.20;1.67;;;21.70;99.90;;;;;;5129456;27;20023;-89
2023/07/13 04:09:36;;;;;;;3.97;1.50;;;21.80;99.90;;;;;;5133802;27;20018;-89
2023/07/13 04:12:02;;;;;;;8.18;1.73;;;21.60;99.90;;;;;;5122136;27;20044;-88
2023/07/13 04:14:28;;;;;;;3.55;1.20;;;21.60;99.90;;;;;;5112058;28;20023;-88
2023/07/13 04:16:57;;;;;;;4.10;1.50;;;21.60;99.90;;;;;;5127650;28;20020;-89
2023/07/13 04:19:23;;;;;;;4.65;1.20;;;21.70;99.90;;;;;;5132592;28;20389;-89
2023/07/13 04:21:48;;;;;;;3.13;1.23;;;21.70;99.90;;;;;;5132408;28;20023;-89
2023/07/13 04:24:14;;;;;;;6.57;1.23;;;21.70;99.90;;;;;;5124260;28;20054;-90
2023/07/13 04:26:40;;;;;;;2.03;1.75;;;21.80;99.90;;;;;;5114885;28;20019;-89
2023/07/13 04:29:07;;;;;;;2.45;1.23;;;21.90;99.90;;;;;;5111956;28;20028;-90
2023/07/13 04:31:33;;;;;;;8.00;1.40;;;21.90;99.90;;;;;;5117406;28;20061;-90
2023/07/13 04:33:59;;;;;;;4.25;1.55;;;22.00;99.90;;;;;;5133066;27;20394;-90
2023/07/13 04:36:28;;;;;;;1.85;1.40;;;22.00;99.90;;;;;;5138038;27;20028;-90
2023/07/13 04:38:54;;;;;;;6.95;1.52;;;22.10;99.90;;;;;;5136649;27;20110;-90
2023/07/13 04:41:21;;;;;;;1.67;1.10;;;22.10;99.90;;;;;;5136938;27;20114;-90
2023/07/13 04:43:47;;;;;;;4.32;1.85;;;22.20;99.90;;;;;;5121016;27;20015;-91
2023/07/13 04:46:19;;;;;;;1.85;1.40;;;22.20;99.90;;;;;;5115790;28;20031;-91
2023/07/13 04:48:44;;;;;;;3.65;1.83;;;22.20;99.90;;;;;;5117904;27;20023;-91
2023/07/13 04:51:11;;;;;;;6.85;1.83;;;22.30;99.90;;;;;;5117655;27;20390;-91
2023/07/13 04:53:36;;;;;;;4.20;1.55;;;22.20;99.90;;;;;;5122779;27;20514;-90
2023/07/13 04:56:03;;;;;;;4.22;1.75;;;22.20;99.90;;;;;;5129047;27;20023;-91
2023/07/13 04:58:29;;;;;;;4.00;1.55;;;22.30;99.90;;;;;;5123884;27;20107;-88
2023/07/13 05:01:04;;;;;;;4.05;1.83;;;22.30;99.90;;;;;;5119935;27;20032;-89
2023/07/13 05:03:30;;;;;;;1.95;1.70;;;22.20;99.90;;;;;;5129355;27;20027;-90
2023/07/13 05:06:01;;;;;;;2.40;1.50;;;22.20;99.90;;;;;;5130217;27;20438;-89
2023/07/13 05:08:27;;;;;;;4.40;1.40;;;22.20;99.90;;;;;;5134648;27;20478;-88
2023/07/13 05:10:53;;;;;;;4.78;1.67;;;22.20;99.90;;;;;;5127350;27;20051;-90
2023/07/13 05:13:19;;;;;;;5.07;1.65;;;22.20;99.90;;;;;;5136504;27;21108;-90
2023/07/13 05:15:45;;;;;;;6.38;1.70;;;22.20;99.90;;;;;;5127258;27;20024;-90
2023/07/13 05:18:11;;;;;;;2.00;1.23;;;22.30;99.90;;;;;;5135599;27;20061;-90
2023/07/13 05:20:37;;;;;;;2.85;1.33;;;22.30;99.90;;;;;;5136569;27;20516;-89
2023/07/13 05:23:03;;;;;;;3.95;1.70;;;22.30;99.90;;;;;;5134170;27;20060;-90
2023/07/13 05:25:28;;;;;;;4.72;1.70;;;22.30;99.90;;;;;;5122207;27;20023;-89
2023/07/13 05:27:54;;;;;;;3.50;1.80;;;22.30;99.90;;;;;;5129806;27;20038;-90
2023/07/13 05:30:20;;;;;;;2.55;1.25;;;22.40;99.90;;;;;;5133347;27;20015;-90
2023/07/13 05:32:45;;;;;;;1.88;1.50;;;22.40;99.90;;;;;;5123285;27;20401;-90
2023/07/13 05:35:11;;;;;;;3.17;1.50;;;22.40;99.90;;;;;;5137330;27;20063;-90
2023/07/13 05:37:38;;;;;;;2.85;1.27;;;22.50;99.90;;;;;;5115720;28;20028;-91
2023/07/13 05:40:04;;;;;;;1.75;1.42;;;22.50;99.90;;;;;;5115781;28;20030;-90
2023/07/13 05:42:31;;;;;;;3.90;1.60;;;22.50;99.90;;;;;;5123415;27;20023;-90
2023/07/13 05:44:57;;;;;;;3.53;1.52;;;22.50;99.90;;;;;;5131828;27;20042;-90
2023/07/13 05:47:22;;;;;;;4.07;1.70;;;22.50;99.90;;;;;;5114652;28;20083;-90
2023/07/13 05:49:48;;;;;;;4.65;1.30;;;22.50;99.90;;;;;;5128349;27;20015;-90
2023/07/13 05:52:14;;;;;;;3.40;1.58;;;22.50;99.90;;;;;;5123628;27;20031;-90
2023/07/13 05:54:39;;;;;;;3.53;1.70;;;22.60;99.90;;;;;;5123828;27;20047;-91
2023/07/13 05:57:05;;;;;;;5.78;1.55;;;22.70;99.90;;;;;;5132580;27;20027;-90
2023/07/13 05:59:31;;;;;;;4.47;2.00;;;22.70;99.90;;;;;;5131056;27;20034;-90
2023/07/13 06:01:57;;;;;;;1.95;1.77;;;22.90;99.90;;;;;;5129922;27;20058;-91
2023/07/13 06:04:22;;;;;;;2.92;1.50;;;22.90;99.90;;;;;;5115987;27;20050;-90
2023/07/13 06:06:48;;;;;;;2.63;1.88;;;22.90;99.90;;;;;;5129540;27;20725;-90
2023/07/13 06:09:14;;;;;;;3.17;1.50;;;22.90;99.90;;;;;;5136609;27;20026;-90
2023/07/13 06:11:39;;;;;;;3.10;1.67;;;22.90;99.90;;;;;;5127487;27;20135;-90
2023/07/13 06:14:05;;;;;;;2.00;1.60;;;23.00;99.90;;;;;;5122870;27;20015;-91
2023/07/13 06:16:31;;;;;;;2.63;1.70;;;23.00;99.90;;;;;;5135080;27;20386;-91
2023/07/13 06:18:57;;;;;;;7.28;1.90;;;23.10;99.90;;;;;;5122085;27;20024;-90
2023/07/13 06:21:23;;;;;;;4.05;1.83;;;23.10;99.90;;;;;;5116187;27;20019;-90
2023/07/13 06:23:51;;;;;;;3.30;1.92;;;23.10;99.90;;;;;;5118484;27;20061;-90
2023/07/13 06:26:20;;;;;;;4.45;1.65;;;23.20;99.90;;;;;;5123578;27;20605;-90
2023/07/13 06:28:46;;;;;;;3.45;1.77;;;23.20;99.90;;;;;;5118687;27;20420;-91
2023/07/13 06:31:14;;;;;;;1.63;1.52;;;23.20;99.90;;;;;;5124322;27;20020;-91
2023/07/13 06:33:40;;;;;;;5.75;2.13;;;23.20;99.90;;;;;;5125053;27;20019;-91
2023/07/13 06:36:07;;;;;;;3.08;1.40;;;23.10;99.90;;;;;;5113383;28;20425;-89
2023/07/13 06:38:33;;;;;;;6.40;1.67;;;23.10;99.90;;;;;;5114822;28;20068;-90
2023/07/13 06:40:59;;;;;;;3.05;1.42;;;23.10;99.90;;;;;;5130337;27;20023;-90
2023/07/13 06:43:25;;;;;;;8.65;2.03;;;23.10;99.90;;;;;;5131525;27;20059;-90
2023/07/13 06:45:54;;;;;;;3.85;1.70;;;23.00;99.90;;;;;;5131389;27;20011;-90
2023/07/13 06:48:20;;;;;;;3.33;1.63;;;23.00;99.90;;;;;;5134040;27;20027;-90
2023/07/13 06:50:48;;;;;;;2.15;1.42;;;23.00;99.90;;;;;;5119203;27;20024;-89
2023/07/13 06:53:14;;;;;;;2.67;1.55;;;23.00;99.90;;;;;;5115249;28;20545;-89
2023/07/13 06:55:40;;;;;;;2.25;1.48;;;23.00;99.90;;;;;;5121584;27;20076;-90
2023/07/13 06:58:06;;;;;;;2.80;1.70;;;23.00;99.90;;;;;;5115220;28;20032;-90
2023/07/13 07:00:31;;;;;;;1.85;1.65;;;23.00;99.90;;;;;;5127522;27;20034;-90
2023/07/13 07:02:57;;;;;;;5.18;2.03;;;23.00;99.90;;;;;;5134736;27;20034;-91
2023/07/13 07:05:23;;;;;;;5.15;1.92;;;23.00;99.90;;;;;;5114425;28;20019;-90
2023/07/13 07:07:52;;;;;;;5.50;1.98;;;23.00;99.90;;;;;;5115162;28;20033;-89
2023/07/13 07:10:19;;;;;;;4.75;1.92;;;23.00;99.90;;;;;;5114050;28;20033;-90
2023/07/13 07:12:44;;;;;;;6.10;2.05;;;23.10;99.90;;;;;;5113690;28;20044;-90
2023/07/13 07:15:11;;;;;;;4.72;1.70;;;23.10;99.90;;;;;;5113889;28;20053;-90
2023/07/13 07:17:37;;;;;;;4.10;1.83;;;23.10;99.90;;;;;;5114893;27;20024;-90
2023/07/13 07:20:03;;;;;;;4.35;1.98;;;23.20;99.90;;;;;;5113999;28;20050;-90
2023/07/13 07:22:30;;;;;;;5.65;1.63;;;23.20;99.90;;;;;;5114693;28;20027;-90
2023/07/13 07:24:56;;;;;;;5.00;1.63;;;23.20;99.90;;;;;;5129638;27;20030;-89
2023/07/13 07:27:23;;;;;;;5.20;1.88;;;23.30;99.90;;;;;;5122411;27;20093;-90
2023/07/13 07:29:54;;;;;;;2.28;1.80;;;23.30;99.90;;;;;;5120353;27;20024;-89
2023/07/13 07:32:23;;;;;;;;;;;23.40;99.90;;;;;;5122791;27;20023;-90
2023/07/13 07:34:52;;;;;;;3.15;1.90;;;23.40;99.90;;;;;;5119579;27;20411;-90
2023/07/13 07:37:17;;;;;;;3.10;2.05;;;23.50;99.90;;;;;;5139871;27;20111;-90
2023/07/13 07:39:44;;;;;;;2.17;1.98;;;23.40;99.90;;;;;;5118982;27;20077;-90
2023/07/13 07:42:12;;;;;;;7.68;1.90;;;23.50;99.90;;;;;;5123067;27;20087;-90
2023/07/13 07:44:38;;;;;;;6.68;1.98;;;23.60;99.90;;;;;;5119512;27;20027;-90
2023/07/13 07:47:04;;;;;;;5.45;1.60;;;23.60;99.90;;;;;;5129813;27;20027;-89
2023/07/13 07:49:29;;;;;;;3.90;1.73;;;23.70;99.90;;;;;;5122937;27;20027;-88
2023/07/13 07:51:55;;;;;;;3.30;1.63;;;23.70;99.90;;;;;;5123663;27;20027;-89
2023/07/13 07:54:21;;;;;;;6.43;1.83;;;23.70;99.90;;;;;;5122754;27;20038;-89
2023/07/13 07:56:46;;;;;;;6.30;1.88;;;23.70;99.90;;;;;;5123109;27;20110;-89
2023/07/13 07:59:12;;;;;;;1.40;1.30;;;23.80;99.90;;;;;;5120780;27;20031;-89
2023/07/13 08:01:38;;;;;;;4.03;1.42;;;23.90;99.90;;;;;;5124536;27;20062;-89
2023/07/13 08:04:04;;;;;;;3.65;1.60;;;23.90;99.90;;;;;;5123831;27;20028;-88
2023/07/13 08:06:33;;;;;;;8.18;1.75;;;24.00;99.90;;;;;;5128385;27;20019;-89
2023/07/13 08:08:59;;;;;;;4.07;1.50;;;24.00;99.90;;;;;;5123760;27;20023;-89
2023/07/13 08:11:25;;;;;;;2.45;1.85;;;24.00;99.90;;;;;;5122395;27;20043;-89
2023/07/13 08:13:50;;;;;;;5.57;2.55;;;24.00;99.90;;;;;;5121553;27;20356;-89
2023/07/13 08:16:16;;;;;;;8.05;1.98;;;23.90;99.90;;;;;;5121750;28;20068;-89
2023/07/13 08:18:42;;;;;;;5.47;1.90;;;23.90;99.90;;;;;;5121912;28;20368;-88
2023/07/13 08:21:09;;;;;;;4.18;2.17;;;23.90;99.90;;;;;;5121150;28;20028;-89
2023/07/13 08:23:35;;;;;;;5.47;1.70;;;24.00;99.90;;;;;;5122797;28;20424;-88
2023/07/13 08:26:02;;;;;;;5.53;2.05;;;24.00;99.90;;;;;;5120208;28;20069;-88
2023/07/13 08:28:28;;;;;;;8.40;2.22;;;24.00;99.90;;;;;;5124799;28;20023;-88
2023/07/13 08:30:54;;;;;;;3.55;2.35;;;24.00;99.90;;;;;;5119463;28;20125;-88
2023/07/13 08:33:21;;;;;;;5.47;2.00;;;23.90;99.90;;;;;;5123683;28;20027;-89
2023/07/13 08:35:48;;;;;;;7.20;1.67;;;24.00;99.90;;;;;;5122302;28;20089;-88
2023/07/13 08:38:15;;;;;;;6.07;1.73;;;24.00;99.90;;;;;;5121225;28;20106;-88
2023/07/13 08:40:42;;;;;;;3.17;1.98;;;24.00;99.90;;;;;;5122541;27;20065;-88
2023/07/13 08:43:15;;;;;;;3.70;1.80;;;24.20;99.90;;;;;;5122127;28;20383;-88
2023/07/13 08:45:46;;;;;;;6.25;1.50;;;24.20;99.90;;;;;;5119564;28;20390;-88
2023/07/13 08:48:32;;;;;;;1.70;1.42;;;24.20;99.90;;;;;;5122206;28;20023;-87
2023/07/13 08:51:00;;;;;;;6.97;1.30;;;24.20;99.90;;;;;;5124245;28;20032;-88
2023/07/13 08:53:34;;;;;;;3.45;1.70;;;24.10;99.90;;;;;;5122568;28;20485;-88
2023/07/13 08:56:01;;;;;;;3.65;1.40;;;24.10;99.90;;;;;;5138937;27;20032;-88
2023/07/13 08:58:28;;;;;;;4.28;1.35;;;24.20;99.90;;;;;;5121053;27;20023;-87
2023/07/13 09:01:22;;;;;;;4.15;1.55;;;24.20;99.90;;;;;;5132429;27;20079;-87
2023/07/13 09:04:09;;;;;;;3.25;1.50;;;24.20;99.90;;;;;;5124330;28;20438;-88
2023/07/13 09:06:50;;;;;;;4.10;1.80;;;24.30;99.90;;;;;;5144298;27;20382;-88
2023/07/13 09:09:49;;;;;;;3.55;1.80;;;24.30;99.90;;;;;;5131311;28;20023;-89
2023/07/13 09:12:30;;;;;;;5.63;2.13;;;24.30;99.90;;;;;;5112169;28;20559;-87
2023/07/13 09:14:58;;;;;;;4.75;1.73;;;24.40;99.90;;;;;;5122253;28;20053;-88
2023/07/13 09:17:31;;;;;;;2.70;1.73;;;24.40;99.90;;;;;;5132815;28;20030;-87
2023/07/13 09:20:03;;;;;;;12.30;2.53;;;24.40;99.90;;;;;;5132706;27;20113;-87
2023/07/13 09:22:34;;;;;;;11.82;2.53;;;24.40;99.90;;;;;;5135487;27;20079;-87
2023/07/13 09:25:34;;;;;;;8.90;2.30;;;24.50;99.90;;;;;;5135409;27;20015;-88
2023/07/13 09:28:30;;;;;;;5.10;2.30;;;24.40;99.90;;;;;;5129837;27;20027;-87
2023/07/13 09:31:22;;;;;;;8.65;3.17;;;24.50;99.90;;;;;;5110484;28;20027;-87
2023/07/13 09:33:50;;;;;;;3.35;2.03;;;24.50;99.90;;;;;;5126483;27;20031;-83
2023/07/13 09:36:24;;;;;;;4.28;1.70;;;24.50;99.90;;;;;;5115752;27;20015;-83
2023/07/13 09:39:07;;;;;;;1.58;1.30;;;24.40;99.90;;;;;;5122744;27;20110;-83
2023/07/13 09:41:55;;;;;;;5.60;1.63;;;24.50;99.90;;;;;;5126876;27;20051;-83
2023/07/13 09:44:30;;;;;;;2.20;1.70;;;24.50;99.90;;;;;;5123752;27;20023;-83
2023/07/13 09:46:57;;;;;;;3.42;1.80;;;24.60;99.90;;;;;;5116553;27;20399;-83
2023/07/13 09:49:28;;;;;;;3.22;1.30;;;24.60;99.90;;;;;;5120789;27;20026;-83
2023/07/13 09:52:10;;;;;;;4.25;1.73;;;24.60;99.90;;;;;;5122129;27;20027;-83
2023/07/13 09:54:36;;;;;;;2.05;1.50;;;24.70;99.90;;;;;;5126484;27;20045;-83
2023/07/13 09:57:12;;;;;;;5.55;1.88;;;24.80;99.90;;;;;;5119689;27;20390;-83
2023/07/13 09:59:42;;;;;;;4.07;1.92;;;24.90;99.90;;;;;;5120504;27;20038;-83
2023/07/13 10:02:33;;;;;;;2.05;1.58;;;25.00;99.90;;;;;;5123365;27;20517;-82
2023/07/13 10:05:15;;;;;;;4.57;1.60;;;25.10;99.90;;;;;;5130840;27;20023;-83
2023/07/13 10:07:44;;;;;;;1.92;1.50;;;25.30;99.90;;;;;;5121396;27;20424;-83
2023/07/13 10:10:16;;;;;;;1.20;1.10;;;25.40;99.90;;;;;;5123017;27;20098;-83
2023/07/13 10:12:43;;;;;;;2.88;1.27;;;25.60;99.90;;;;;;5124418;27;20078;-83
2023/07/13 10:15:16;;;;;;;1.70;1.60;;;25.70;99.90;;;;;;5121191;27;20030;-82
2023/07/13 10:17:44;;;;;;;4.13;0.90;;;25.70;99.90;;;;;;5123045;27;20037;-83
2023/07/13 10:20:12;;;;;;;5.03;1.42;;;25.80;99.90;;;;;;5123111;27;20024;-83
2023/07/13 10:23:00;;;;;;;3.28;1.15;;;25.90;99.90;;;;;;5121811;27;20045;-82
2023/07/13 10:25:30;;;;;;;1.98;1.23;;;25.90;99.90;;;;;;5130294;27;20057;-83
2023/07/13 10:28:23;;;;;;;3.20;1.70;;;25.90;99.90;;;;;;5121058;27;20024;-82
2023/07/13 10:30:55;;;;;;;5.13;1.85;;;25.90;99.90;;;;;;5122413;27;20322;-83
2023/07/13 10:33:22;;;;;;;5.05;2.15;;;25.90;99.90;;;;;;5124061;27;20551;-83
2023/07/13 10:35:52;;;;;;;8.02;2.72;;;25.90;99.90;;;;;;5121741;27;20031;-83
2023/07/13 10:38:23;;;;;;;5.47;2.05;;;25.80;99.90;;;;;;5122543;27;20449;-83
2023/07/13 10:41:05;;;;;;;3.83;2.60;;;25.80;99.90;;;;;;5124926;27;20486;-83
2023/07/13 10:43:41;;;;;;;6.72;2.30;;;25.70;99.90;;;;;;5122151;27;20432;-83
2023/07/13 10:46:10;;;;;;;7.30;2.17;;;25.70;99.90;;;;;;5122258;27;20080;-83
2023/07/13 10:48:39;;;;;;;3.35;2.17;;;25.70;99.90;;;;;;5125826;27;20026;-83
2023/07/13 10:51:06;;;;;;;4.60;2.20;;;25.70;99.90;;;;;;5121523;27;20383;-83
2023/07/13 10:53:37;;;;;;;5.65;1.63;;;25.80;99.90;;;;;;5123883;27;20031;-83
2023/07/13 10:56:31;;;;;;;5.20;2.00;;;25.80;99.90;;;;;;5124278;27;20015;-82
2023/07/13 10:59:32;;;;;;;7.55;1.90;;;25.90;99.90;;;;;;5130717;27;20027;-83
2023/07/13 11:02:07;;;;;;;3.05;1.92;;;26.00;99.90;;;;;;5124204;27;20027;-83
2023/07/13 11:04:53;;;;;;;2.70;1.90;;;26.00;99.90;;;;;;5125448;27;20023;-83
2023/07/13 11:07:31;;;;;;;2.33;1.60;;;26.00;99.90;;;;;;5122257;27;20064;-83
2023/07/13 11:10:05;;;;;;;5.70;1.77;;;26.00;99.90;;;;;;5124134;27;20024;-83
2023/07/13 11:12:50;;;;;;;2.65;1.60;;;26.20;99.90;;;;;;5128080;27;20537;-84
2023/07/13 11:15:29;;;;;;;3.47;1.42;;;26.50;99.90;;;;;;5124780;27;20031;-84
2023/07/13 11:17:59;;;;;;;3.15;1.75;;;26.50;99.90;;;;;;5121284;27;20590;-84
2023/07/13 11:20:35;;;;;;;2.72;1.95;;;26.50;99.90;;;;;;5128107;27;20034;-83
2023/07/13 11:23:20;;;;;;;8.63;1.98;;;26.70;99.90;;;;;;5117182;27;20054;-83
2023/07/13 11:25:47;;;;;;;2.75;1.80;;;26.90;99.90;;;;;;5124008;27;20078;-84
2023/07/13 11:28:12;;;;;;;5.82;2.17;;;27.00;99.90;;;;;;5120130;27;20020;-84
2023/07/13 11:30:42;;;;;;;3.20;1.90;;;27.00;99.90;;;;;;5115703;27;20032;-84
2023/07/13 11:33:30;;;;;;;6.10;2.10;;;27.10;99.90;;;;;;5125319;27;20029;-84
2023/07/13 11:36:03;;;;;;;2.35;1.73;;;27.30;99.90;;;;;;5123772;27;20026;-84
2023/07/13 11:38:32;;;;;;;2.38;1.95;;;27.40;99.90;;;;;;5131236;27;20110;-84
2023/07/13 11:41:03;;;;;;;5.55;2.60;;;27.50;99.90;;;;;;5122542;27;20076;-84
2023/07/13 11:43:29;;;;;;;4.30;2.10;;;27.60;99.90;;;;;;5122363;27;20386;-84
2023/07/13 11:45:55;;;;;;;3.10;2.50;;;27.70;99.90;;;;;;5119489;27;20022;-84
2023/07/13 11:48:24;;;;;;;10.10;2.17;;;27.80;99.90;;;;;;5120514;27;20031;-84
2023/07/13 11:51:00;;;;;;;7.82;2.63;;;28.00;99.90;;;;;;5119011;27;20261;-85
2023/07/13 11:53:29;;;;;;;3.45;1.90;;;27.90;99.90;;;;;;5133992;27;20455;-84
2023/07/13 11:55:56;;;;;;;5.50;2.45;;;28.00;99.90;;;;;;5118988;27;20055;-84
2023/07/13 11:58:25;;;;;;;2.95;2.38;;;28.10;99.90;;;;;;5122928;27;20035;-84
2023/07/13 12:00:54;;;;;;;6.78;2.75;;;28.30;99.90;;;;;;5124220;27;20061;-84
2023/07/13 12:03:24;;;;;;;4.63;2.38;;;28.50;99.90;;;;;;5123071;27;20028;-84
2023/07/13 12:06:19;;;;;;;7.07;2.00;;;28.80;99.90;;;;;;5120506;27;21085;-83
2023/07/13 12:08:45;;;;;;;4.68;2.30;;;28.90;99.90;;;;;;5120097;27;20027;-83
2023/07/13 12:11:17;;;;;;;5.18;2.20;;;29.10;99.90;;;;;;5124316;27;20110;-83
2023/07/13 12:13:44;;;;;;;;;;;29.10;99.90;;;;;;5119474;27;20035;-83
2023/07/13 12:16:17;;;;;;;7.75;2.25;;;29.10;99.90;;;;;;5123183;27;19919;-82
2023/07/13 12:18:48;;;;;;;3.50;2.00;;;29.10;99.90;;;;;;5120702;28;20030;-82
2023/07/13 12:21:18;;;;;;;9.90;2.75;;;29.20;99.90;;;;;;5120875;27;20069;-82
2023/07/13 12:23:46;;;;;;;8.82;2.53;;;29.20;99.90;;;;;;5123817;28;20027;-82
2023/07/13 12:26:13;;;;;;;5.65;2.33;;;29.30;99.90;;;;;;5119478;28;20028;-82
2023/07/13 12:28:48;;;;;;;7.07;2.60;;;29.50;99.90;;;;;;5121389;28;20023;-82
2023/07/13 12:31:32;;;;;;;6.28;2.95;;;29.50;99.90;;;;;;5142766;27;20017;-81
2023/07/13 12:34:06;;;;;;;2.58;2.38;;;29.50;99.90;;;;;;5121697;28;20027;-81
2023/07/13 12:36:34;;;;;;;4.47;2.78;;;29.40;99.90;;;;;;5119422;28;20039;-81
2023/07/13 12:39:23;;;;;;;7.90;2.92;;;29.50;99.90;;;;;;5123694;28;20031;-81
2023/07/13 12:41:51;;;;;;;9.40;3.38;;;29.60;99.90;;;;;;5122842;28;20039;-80
2023/07/13 12:44:21;;;;;;;6.07;3.05;;;29.20;99.90;;;;;;5118563;28;20368;-80
2023/07/13 12:46:56;;;;;;;7.55;2.70;;;29.10;99.90;;;;;;5121630;28;20019;-80
2023/07/13 12:49:26;;;;;;;7.28;2.28;;;29.10;99.90;;;;;;5137963;27;20035;-80
2023/07/13 12:52:00;;;;;;;5.85;2.50;;;29.20;99.90;;;;;;5120147;27;20077;-80
2023/07/13 12:54:27;;;;;;;4.43;2.50;;;29.20;99.90;;;;;;5120718;28;20032;-80
2023/07/13 12:56:56;;;;;;;8.75;2.83;;;29.30;99.90;;;;;;5126110;27;20023;-79
2023/07/13 12:59:23;;;;;;;11.32;2.90;;;29.30;99.90;;;;;;5123596;27;20015;-79